»·PEaware :: N595K KPSP-KWJF

N595K :: KPSP-KWJF

FLIGHT INFORMATION

Flight Status: Arrived
Operator: Privately registered:
United States
More flights under this callsign
Pilot: Logan D. (20254)
Aircraft: Unknown
(PRIM)
More flights by this aircraft type
Origin: KPSP Palm Springs Intl
United States
Destination: KWJF Gen Fox
United States
More flights between these airports :: More routes between these airports
Route: YUCCA V386 SOGGI V386 ZOREN JETHK
File this flight plan on PilotEdge
Remarks:
Altitude:
(Current/Filed)
6,500ft
Speed:
(Current/Filed)
120kts
Departed: 02-May-19 09:39 AM
Arrived: 02-May-19 10:48 AM
Distance/Time
Traveled:
101nm/1:09
Distance/Time
To Go:
Arrived

Flight Plot

Page will automatically refresh every two minutes.


Map Options




Map Legend


Flown Route
Filed Route
Departure Airport
Arrival Airport
Navaid (VOR, NDB)
Fix

Horizontal Profiles

Position Reports

Time Latitude Longitude Heading Altitude Ground
Speed
02-May-19 08:59 33.822054 -116.496141 323 391ft 0kts
02-May-19 09:00 33.822054 -116.496141 323 391ft 0kts
02-May-19 09:01 33.822054 -116.496141 323 391ft 0kts
02-May-19 09:02 33.822054 -116.496141 323 391ft 0kts
02-May-19 09:03 33.822054 -116.496141 323 391ft 0kts
02-May-19 09:04 33.822054 -116.496141 323 391ft 0kts
02-May-19 09:05 33.822054 -116.496141 323 391ft 0kts
02-May-19 09:06 33.822054 -116.496141 323 391ft 0kts
02-May-19 09:07 33.822054 -116.496141 323 391ft 0kts
02-May-19 09:08 33.822054 -116.496141 323 391ft 0kts
02-May-19 09:09 33.822054 -116.496141 323 391ft 0kts
02-May-19 09:10 33.822054 -116.496141 323 391ft 0kts
02-May-19 09:11 33.822054 -116.496141 323 391ft 0kts
02-May-19 09:12 33.822054 -116.496141 323 391ft 0kts
02-May-19 09:13 33.822054 -116.496141 323 391ft 0kts
02-May-19 09:14 33.822054 -116.496141 323 391ft 0kts
02-May-19 09:15 33.822054 -116.496141 323 391ft 0kts
02-May-19 09:16 33.822054 -116.496141 323 391ft 0kts
02-May-19 09:17 33.822054 -116.496141 323 391ft 0kts
02-May-19 09:18 33.822054 -116.496141 323 391ft 0kts
02-May-19 09:19 33.822054 -116.496141 323 391ft 0kts
02-May-19 09:20 33.822054 -116.496141 323 391ft 0kts
02-May-19 09:21 33.822054 -116.496141 323 391ft 0kts
02-May-19 09:22 33.822054 -116.496141 323 391ft 0kts
02-May-19 09:22 33.822054 -116.496141 323 391ft 0kts
02-May-19 09:24 33.822054 -116.496141 323 391ft 0kts
02-May-19 09:24 33.822054 -116.496141 323 391ft 0kts
02-May-19 09:26 33.822054 -116.496141 323 391ft 0kts
02-May-19 09:26 33.822054 -116.496141 323 391ft 0kts
02-May-19 09:27 33.822054 -116.496141 323 391ft 0kts
02-May-19 09:29 33.822054 -116.496141 323 391ft 0kts
02-May-19 09:29 33.822054 -116.496141 323 391ft 0kts
02-May-19 09:31 33.822054 -116.496141 323 391ft 0kts
02-May-19 09:31 33.822054 -116.496141 323 391ft 0kts
02-May-19 09:32 33.822054 -116.496141 323 391ft 0kts
02-May-19 09:33 33.822054 -116.496141 323 391ft 0kts
02-May-19 09:34 33.822171 -116.496477 281 392ft 7kts
02-May-19 09:35 33.824392 -116.499025 327 400ft 5kts
02-May-19 09:36 33.824582 -116.499680 231 401ft 0kts
02-May-19 09:37 33.824582 -116.499680 231 401ft 0kts
02-May-19 09:38 33.827291 -116.502655 324 413ft 72kts
02-May-19 09:39 33.849775 -116.521831 327 1269ft 111kts
02-May-19 09:40 33.876211 -116.541109 341 2914ft 112kts
02-May-19 09:41 33.906178 -116.540262 22 4443ft 116kts
02-May-19 09:42 33.936505 -116.520382 29 5663ft 131kts
02-May-19 09:43 33.969319 -116.498333 27 6512ft 153kts
02-May-19 09:44 34.011710 -116.491306 347 6507ft 161kts
02-May-19 09:45 34.054983 -116.498441 355 6502ft 153kts
02-May-19 09:46 34.097036 -116.498280 2 6499ft 154kts
02-May-19 09:47 34.138964 -116.504269 342 6497ft 155kts
02-May-19 09:48 34.180510 -116.518908 346 6494ft 149kts
02-May-19 09:49 34.219186 -116.519481 18 6488ft 131kts
02-May-19 09:50 34.254853 -116.504731 17 6492ft 151kts
02-May-19 09:51 34.295869 -116.505679 326 6487ft 142kts
02-May-19 09:52 34.325660 -116.529656 325 6489ft 119kts
02-May-19 09:53 34.349629 -116.560414 308 6491ft 134kts
02-May-19 09:54 34.371820 -116.592223 310 6489ft 116kts
02-May-19 09:55 34.392643 -116.624998 303 6401ft 133kts
02-May-19 09:56 34.408881 -116.666048 288 6399ft 134kts
02-May-19 09:57 34.415537 -116.706875 274 6398ft 116kts
02-May-19 09:58 34.417985 -116.744808 274 6399ft 110kts
02-May-19 09:59 34.420295 -116.781435 274 6399ft 107kts
02-May-19 10:00 34.422553 -116.817500 274 6399ft 106kts
02-May-19 10:01 34.424797 -116.853398 274 6399ft 106kts
02-May-19 10:02 34.427029 -116.889087 274 6399ft 106kts
02-May-19 10:03 34.429265 -116.924816 274 6400ft 108kts
02-May-19 10:04 34.431950 -116.959973 274 6477ft 144kts
02-May-19 10:05 34.439555 -117.008492 281 6481ft 139kts
02-May-19 10:06 34.444794 -117.041404 280 6484ft 116kts
02-May-19 10:07 34.450525 -117.079739 281 6490ft 132kts
02-May-19 10:08 34.457547 -117.124331 281 6493ft 135kts
02-May-19 10:09 34.463484 -117.168395 255 6463ft 139kts
02-May-19 10:10 34.436908 -117.159371 80 6566ft 148kts
02-May-19 10:11 34.458738 -117.150005 319 6483ft 117kts
02-May-19 10:12 34.461612 -117.169293 255 6493ft 112kts
02-May-19 10:13 34.437314 -117.165275 105 6494ft 133kts
02-May-19 10:14 34.457233 -117.144256 314 6491ft 127kts
02-May-19 10:15 34.472736 -117.183091 289 6494ft 129kts
02-May-19 10:16 34.482804 -117.221190 287 6494ft 112kts
02-May-19 10:17 34.488642 -117.257292 275 6494ft 107kts
02-May-19 10:18 34.488079 -117.292921 262 6494ft 105kts
02-May-19 10:19 34.482505 -117.327808 261 6494ft 105kts
02-May-19 10:20 34.476904 -117.362591 261 6494ft 104kts
02-May-19 10:21 34.473785 -117.397495 275 6494ft 103kts
02-May-19 10:22 34.475621 -117.432354 275 6494ft 103kts
02-May-19 10:23 34.478762 -117.466945 285 6494ft 103kts
02-May-19 10:24 34.485810 -117.500566 285 6494ft 102kts
02-May-19 10:25 34.492908 -117.534189 285 6494ft 102kts
02-May-19 10:26 34.500004 -117.567789 285 6494ft 102kts
02-May-19 10:27 34.507125 -117.601478 285 6494ft 102kts
02-May-19 10:28 34.514242 -117.635131 285 6494ft 102kts
02-May-19 10:29 34.521376 -117.668876 285 6495ft 103kts
02-May-19 10:30 34.528371 -117.701964 285 6495ft 103kts
02-May-19 10:31 34.535468 -117.735518 285 6495ft 103kts
02-May-19 10:32 34.542337 -117.769437 278 6495ft 103kts
02-May-19 10:33 34.565480 -117.787939 342 6496ft 121kts
02-May-19 10:34 34.589649 -117.811303 305 6496ft 116kts
02-May-19 10:35 34.613132 -117.843646 315 6495ft 135kts
02-May-19 10:36 34.637482 -117.876104 304 6494ft 119kts
02-May-19 10:37 34.655697 -117.912227 304 6495ft 129kts
02-May-19 10:38 34.677937 -117.947421 300 6495ft 132kts
02-May-19 10:39 34.695559 -117.985357 297 6492ft 114kts
02-May-19 10:40 34.703302 -118.019117 282 6511ft 121kts
02-May-19 10:41 34.714853 -118.056675 296 6348ft 119kts
02-May-19 10:42 34.731557 -118.090963 312 5954ft 121kts
02-May-19 10:43 34.757735 -118.117805 322 4831ft 104kts
02-May-19 10:44 34.760288 -118.146613 253 4010ft 84kts
02-May-19 10:45 34.753339 -118.173007 254 3458ft 79kts
02-May-19 10:46 34.747286 -118.194823 255 2739ft 62kts
02-May-19 10:47 34.742452 -118.213374 242 2339ft 20kts
02-May-19 10:48 34.740374 -118.214633 164 2339ft 9kts
02-May-19 10:49 34.738929 -118.213997 96 2339ft 1kts
02-May-19 10:50 34.738931 -118.213965 70 2338ft 0kts
02-May-19 10:51 34.738931 -118.213965 70 2338ft 0kts
02-May-19 10:52 34.738931 -118.213965 70 2338ft 0kts
02-May-19 10:53 34.738931 -118.213965 70 2338ft 0kts
02-May-19 10:54 34.738931 -118.213965 70 2338ft 0kts
02-May-19 10:55 34.738931 -118.213965 70 2338ft 0kts
02-May-19 10:56 34.738931 -118.213965 70 2338ft 0kts
02-May-19 10:57 34.738931 -118.213965 70 2338ft 0kts
02-May-19 10:58 34.738931 -118.213965 70 2338ft 0kts
02-May-19 10:59 34.738931 -118.213965 70 2338ft 0kts
02-May-19 11:00 34.738931 -118.213965 70 2338ft 0kts
02-May-19 11:01 34.738931 -118.213965 70 2338ft 0kts

Navigation Log

Ident Type
Flight plan parsing failed, navigation log unavailable